createdAt,value
2023-04-23T00:01:08.314Z,9.73
2023-04-23T00:03:38.918Z,10.23
2023-04-23T00:06:07.995Z,10.43
2023-04-23T00:08:35.120Z,9.83
2023-04-23T00:11:02.191Z,10.43
2023-04-23T00:13:28.682Z,10.20
2023-04-23T00:15:55.555Z,10.67
2023-04-23T00:18:22.045Z,10.50
2023-04-23T00:20:48.585Z,10.70
2023-04-23T00:23:15.034Z,10.33
2023-04-23T00:25:41.638Z,10.33
2023-04-23T00:28:08.000Z,11.17
2023-04-23T00:30:34.495Z,10.20
2023-04-23T00:33:01.308Z,10.17
2023-04-23T00:35:27.852Z,10.70
2023-04-23T00:37:54.299Z,11.10
2023-04-23T00:40:21.204Z,10.40
2023-04-23T00:42:49.149Z,10.90
2023-04-23T00:45:16.640Z,10.83
2023-04-23T00:47:43.651Z,10.83
2023-04-23T00:50:10.169Z,10.37
2023-04-23T00:52:36.832Z,11.07
2023-04-23T00:55:03.324Z,11.80
2023-04-23T00:57:29.782Z,12.07
2023-04-23T00:59:58.267Z,12.07
2023-04-23T01:02:28.122Z,10.77
2023-04-23T01:04:55.784Z,11.97
2023-04-23T01:07:22.872Z,11.93
2023-04-23T01:09:52.376Z,12.20
2023-04-23T01:12:18.897Z,12.07
2023-04-23T01:14:45.985Z,11.17
2023-04-23T01:17:12.859Z,11.97
2023-04-23T01:19:39.909Z,12.87
2023-04-23T01:22:14.654Z,12.30
2023-04-23T01:24:42.850Z,12.23
2023-04-23T01:27:10.065Z,12.03
2023-04-23T01:29:38.087Z,11.33
2023-04-23T01:32:05.335Z,11.57
2023-04-23T01:34:32.241Z,11.87
2023-04-23T01:36:59.391Z,11.87
2023-04-23T01:39:26.213Z,12.03
2023-04-23T01:41:53.464Z,11.73
2023-04-23T01:44:20.006Z,11.70
2023-04-23T01:46:46.788Z,13.13
2023-04-23T01:49:13.215Z,13.97
2023-04-23T01:51:39.664Z,13.37
2023-04-23T01:54:06.056Z,13.13
2023-04-23T01:56:35.060Z,13.03
2023-04-23T01:59:01.782Z,12.97
2023-04-23T02:01:45.621Z,13.70
2023-04-23T02:04:14.460Z,12.77
2023-04-23T02:06:47.081Z,13.10
2023-04-23T02:09:13.774Z,13.67
2023-04-23T02:11:40.258Z,13.47
2023-04-23T02:14:07.385Z,14.40
2023-04-23T02:16:34.505Z,13.10
2023-04-23T02:19:01.871Z,13.07
2023-04-23T02:21:28.445Z,13.37
2023-04-23T02:23:55.311Z,14.13
2023-04-23T02:26:22.812Z,13.43
2023-04-23T02:28:49.373Z,13.87
2023-04-23T02:31:16.547Z,13.70
2023-04-23T02:33:44.365Z,14.57
2023-04-23T02:36:11.752Z,14.27
2023-04-23T02:38:41.464Z,13.50
2023-04-23T02:41:08.335Z,13.63
2023-04-23T02:43:34.782Z,14.10
2023-04-23T02:46:07.937Z,14.43
2023-04-23T02:48:37.181Z,13.23
2023-04-23T02:51:03.778Z,14.60
2023-04-23T02:53:30.255Z,14.43
2023-04-23T02:55:56.940Z,15.17
2023-04-23T02:58:23.331Z,14.70
2023-04-23T03:00:49.781Z,14.60
2023-04-23T03:03:16.666Z,15.57
2023-04-23T03:05:43.205Z,16.83
2023-04-23T03:08:09.611Z,15.50
2023-04-23T03:10:36.372Z,15.73
2023-04-23T03:13:02.821Z,15.53
2023-04-23T03:15:29.237Z,15.90
2023-04-23T03:17:55.952Z,15.97
2023-04-23T03:20:22.410Z,17.10
2023-04-23T03:22:48.758Z,17.07
2023-04-23T03:25:15.301Z,17.37
2023-04-23T03:27:42.365Z,16.70
2023-04-23T03:30:09.310Z,18.07
2023-04-23T03:32:36.817Z,18.43
2023-04-23T03:35:03.372Z,17.70
2023-04-23T03:37:29.722Z,17.50
2023-04-23T03:39:56.383Z,17.93
2023-04-23T03:42:22.753Z,18.43
2023-04-23T03:44:49.102Z,18.40
2023-04-23T03:47:16.395Z,18.20
2023-04-23T03:49:42.716Z,19.27
2023-04-23T03:52:09.035Z,19.80
2023-04-23T03:54:35.441Z,19.20
2023-04-23T03:57:02.383Z,19.90
2023-04-23T03:59:28.847Z,20.07
2023-04-23T04:01:55.407Z,20.30
2023-04-23T04:04:22.059Z,20.37
2023-04-23T04:06:48.517Z,20.10
2023-04-23T04:09:14.980Z,20.13
2023-04-23T04:11:41.356Z,19.67
2023-04-23T04:14:07.770Z,19.83
2023-04-23T04:16:34.279Z,19.83
2023-04-23T04:19:01.504Z,19.27
2023-04-23T04:21:28.287Z,19.80
2023-04-23T04:23:55.739Z,21.43
2023-04-23T04:26:22.126Z,20.83
2023-04-23T04:28:48.491Z,21.00
2023-04-23T04:31:16.073Z,21.00
2023-04-23T04:33:43.246Z,19.73
2023-04-23T04:36:09.612Z,19.73
2023-04-23T04:38:39.206Z,19.33
2023-04-23T04:41:06.344Z,18.33
2023-04-23T04:43:34.382Z,17.20
2023-04-23T04:46:01.236Z,18.37
2023-04-23T04:48:27.628Z,17.47
2023-04-23T04:50:54.127Z,18.33
2023-04-23T04:53:20.508Z,16.70
2023-04-23T04:55:46.894Z,15.93
2023-04-23T04:58:14.063Z,15.47
2023-04-23T05:00:40.472Z,15.83
2023-04-23T05:03:07.651Z,14.97
2023-04-23T05:05:34.342Z,15.13
2023-04-23T05:08:02.267Z,14.40
2023-04-23T05:10:29.692Z,14.43
2023-04-23T05:13:00.668Z,14.50
2023-04-23T05:15:27.135Z,13.97
2023-04-23T05:17:54.099Z,14.03
2023-04-23T05:20:21.069Z,13.73
2023-04-23T05:22:48.175Z,13.27
2023-04-23T05:25:14.604Z,13.77
2023-04-23T05:27:41.520Z,12.30
2023-04-23T05:30:10.005Z,12.30
2023-04-23T05:32:37.792Z,12.57
2023-04-23T05:35:05.992Z,12.17
2023-04-23T05:37:32.387Z,11.37
2023-04-23T05:39:58.901Z,11.70
2023-04-23T05:42:25.373Z,11.30
2023-04-23T05:44:53.423Z,12.27
2023-04-23T05:47:20.028Z,11.97
2023-04-23T05:49:46.444Z,11.07
2023-04-23T05:52:13.319Z,11.10
2023-04-23T05:54:39.914Z,10.70
2023-04-23T05:57:06.413Z,10.90
2023-04-23T05:59:34.019Z,10.73
2023-04-23T06:02:00.661Z,10.23
2023-04-23T06:04:27.322Z,10.20
2023-04-23T06:06:54.071Z,9.60
2023-04-23T06:09:20.581Z,10.07
2023-04-23T06:11:46.951Z,9.97
2023-04-23T06:14:13.324Z,9.57
2023-04-23T06:16:40.423Z,9.37
2023-04-23T06:19:06.826Z,9.17
2023-04-23T06:21:33.541Z,9.27
2023-04-23T06:24:00.084Z,10.00
2023-04-23T06:26:26.486Z,8.97
2023-04-23T06:28:52.858Z,8.67
2023-04-23T06:31:19.737Z,9.60
2023-04-23T06:33:46.368Z,8.23
2023-04-23T06:36:14.729Z,8.93
2023-04-23T06:38:41.341Z,8.13
2023-04-23T06:41:07.823Z,8.43
2023-04-23T06:43:34.805Z,7.77
2023-04-23T06:46:01.168Z,8.17
2023-04-23T06:48:27.542Z,7.50
2023-04-23T06:50:54.042Z,7.47
2023-04-23T06:53:20.409Z,7.50
2023-04-23T06:55:46.836Z,7.53
2023-04-23T06:58:14.228Z,6.97
2023-04-23T07:00:41.742Z,6.50
2023-04-23T07:03:08.368Z,6.83
2023-04-23T07:05:34.941Z,7.43
2023-04-23T07:08:01.346Z,6.87
2023-04-23T07:10:27.692Z,7.80
2023-04-23T07:12:54.372Z,7.07
2023-04-23T07:15:20.848Z,6.00
2023-04-23T07:17:47.240Z,6.33
2023-04-23T07:20:13.852Z,5.43
2023-04-23T07:22:40.167Z,5.27
2023-04-23T07:25:08.499Z,5.27
2023-04-23T07:27:35.300Z,5.63
2023-04-23T07:30:02.197Z,5.30
2023-04-23T07:32:28.818Z,5.10
2023-04-23T07:34:58.302Z,4.57
2023-04-23T07:37:24.694Z,4.83
2023-04-23T07:39:51.059Z,4.83
2023-04-23T07:42:17.432Z,4.47
2023-04-23T07:44:43.810Z,4.40
2023-04-23T07:47:10.313Z,4.37
2023-04-23T07:49:36.744Z,3.93
2023-04-23T07:52:03.118Z,3.90
2023-04-23T07:54:29.492Z,3.73
2023-04-23T07:56:57.148Z,3.53
2023-04-23T07:59:23.483Z,3.60
2023-04-23T08:01:49.879Z,3.50
2023-04-23T08:04:16.523Z,3.47
2023-04-23T08:06:43.077Z,3.40
2023-04-23T08:09:09.386Z,3.20
2023-04-23T08:11:35.805Z,3.03
2023-04-23T08:14:02.184Z,3.10
2023-04-23T08:16:29.873Z,3.07
2023-04-23T08:21:32.411Z,3.20
2023-04-23T08:23:59.252Z,3.20
2023-04-23T08:26:25.997Z,3.20
2023-04-23T08:28:52.351Z,3.03
2023-04-23T08:31:26.539Z,2.50
2023-04-23T08:33:53.941Z,3.10
2023-04-23T08:36:20.596Z,2.87
2023-04-23T08:38:46.948Z,2.83
2023-04-23T08:41:15.109Z,2.97
2023-04-23T08:43:51.577Z,2.90
2023-04-23T08:46:18.278Z,2.50
2023-04-23T08:48:47.281Z,2.73
2023-04-23T08:51:19.451Z,2.60
2023-04-23T08:53:52.231Z,2.57
2023-04-23T08:56:21.305Z,2.70
2023-04-23T08:58:49.888Z,2.50
2023-04-23T09:01:17.599Z,2.60
2023-04-23T09:03:44.412Z,2.50
2023-04-23T09:06:11.809Z,2.40
2023-04-23T09:08:38.684Z,2.50
2023-04-23T09:11:06.058Z,2.20
2023-04-23T09:13:35.002Z,2.73
2023-04-23T09:16:01.361Z,2.23
2023-04-23T09:18:27.876Z,2.47
2023-04-23T09:20:54.450Z,2.40
2023-04-23T09:23:22.378Z,2.30
2023-04-23T09:25:48.807Z,2.60
2023-04-23T09:28:15.504Z,2.53
2023-04-23T09:30:45.701Z,2.30
2023-04-23T09:33:12.787Z,2.30
2023-04-23T09:35:40.838Z,2.10
2023-04-23T09:38:07.953Z,2.13
2023-04-23T09:40:34.642Z,2.33
2023-04-23T09:43:04.547Z,2.00
2023-04-23T09:45:32.644Z,2.20
2023-04-23T09:47:59.596Z,2.30
2023-04-23T09:50:38.282Z,1.60
2023-04-23T09:53:07.643Z,1.90
2023-04-23T09:55:39.792Z,1.90
2023-04-23T09:58:11.532Z,2.17
2023-04-23T10:00:40.076Z,1.97
2023-04-23T10:03:08.781Z,1.80
2023-04-23T10:08:14.518Z,1.67
2023-04-23T10:10:55.118Z,1.50
2023-04-23T10:13:27.354Z,1.80
2023-04-23T10:15:54.770Z,1.80
2023-04-23T10:18:21.207Z,1.80
2023-04-23T10:20:50.551Z,1.97
2023-04-23T10:23:19.484Z,1.40
2023-04-23T10:25:47.561Z,1.63
2023-04-23T10:28:17.253Z,1.60
2023-04-23T10:30:44.601Z,1.90
2023-04-23T10:33:22.454Z,1.67
2023-04-23T10:35:57.445Z,1.70
2023-04-23T10:38:25.222Z,1.40
2023-04-23T10:40:55.191Z,1.40
2023-04-23T10:43:22.261Z,1.40
2023-04-23T10:45:50.006Z,1.30
2023-04-23T10:48:16.929Z,1.70
2023-04-23T10:51:02.544Z,1.40
2023-04-23T10:53:31.694Z,1.40
2023-04-23T10:56:09.211Z,1.10
2023-04-23T10:58:49.878Z,1.20
2023-04-23T11:01:17.889Z,1.40
2023-04-23T11:03:45.188Z,1.37
2023-04-23T11:06:39.733Z,1.10
2023-04-23T11:09:30.638Z,1.60
2023-04-23T11:12:01.626Z,1.40
2023-04-23T11:14:37.751Z,1.10
2023-04-23T11:17:06.641Z,1.13
2023-04-23T11:19:41.346Z,1.90
2023-04-23T11:22:14.161Z,1.10
2023-04-23T11:24:42.780Z,1.30
2023-04-23T11:27:14.285Z,1.40
2023-04-23T11:29:43.142Z,1.10
2023-04-23T11:32:13.027Z,1.57
2023-04-23T11:34:40.977Z,1.43
2023-04-23T11:37:11.096Z,1.03
2023-04-23T11:39:38.178Z,1.63
2023-04-23T11:42:05.208Z,1.40
2023-04-23T11:44:31.956Z,1.57
2023-04-23T11:47:02.371Z,1.47
2023-04-23T11:49:28.997Z,1.93
2023-04-23T11:51:55.549Z,1.70
2023-04-23T11:54:27.272Z,1.93
2023-04-23T11:56:55.020Z,1.73
2023-04-23T11:59:21.357Z,1.40
2023-04-23T12:01:50.377Z,1.30
2023-04-23T12:04:20.518Z,1.27
2023-04-23T12:06:48.905Z,1.13
2023-04-23T12:09:18.352Z,1.60
2023-04-23T12:11:45.722Z,1.20
2023-04-23T12:14:14.123Z,1.37
2023-04-23T12:16:46.904Z,1.40
2023-04-23T12:19:21.696Z,1.30
2023-04-23T12:21:48.720Z,1.40
2023-04-23T12:24:16.022Z,1.33
2023-04-23T12:26:43.983Z,1.20
2023-04-23T12:29:13.753Z,1.40
2023-04-23T12:31:40.291Z,1.00
2023-04-23T12:34:08.861Z,1.23
2023-04-23T12:36:37.591Z,1.30
2023-04-23T12:39:25.571Z,1.10
2023-04-23T12:41:55.172Z,1.23
2023-04-23T12:44:21.950Z,1.43
2023-04-23T12:46:57.754Z,1.30
2023-04-23T12:49:26.938Z,1.20
2023-04-23T12:51:57.458Z,1.20
2023-04-23T12:54:26.481Z,1.17
2023-04-23T12:56:53.367Z,1.20
2023-04-23T12:59:19.920Z,1.20
2023-04-23T13:01:46.286Z,1.20
2023-04-23T13:04:12.804Z,1.43
2023-04-23T13:06:39.957Z,1.30
2023-04-23T13:09:07.654Z,1.67
2023-04-23T13:11:34.050Z,1.40
2023-04-23T13:14:00.417Z,1.57
2023-04-23T13:16:26.951Z,1.40
2023-04-23T13:18:53.507Z,1.43
2023-04-23T13:21:19.935Z,1.20
2023-04-23T13:23:46.337Z,1.20
2023-04-23T13:26:13.298Z,1.20
2023-04-23T13:28:40.137Z,1.50
2023-04-23T13:31:07.340Z,1.13
2023-04-23T13:33:34.219Z,1.17
2023-04-23T13:36:01.779Z,1.13
2023-04-23T13:38:28.671Z,1.30
2023-04-23T13:40:55.028Z,1.10
2023-04-23T13:43:21.720Z,1.33
2023-04-23T13:45:48.306Z,1.30
2023-04-23T13:48:15.857Z,1.20
2023-04-23T13:50:42.898Z,1.33
2023-04-23T13:53:10.610Z,1.23
2023-04-23T13:55:37.650Z,1.07
2023-04-23T13:58:06.757Z,1.23
2023-04-23T14:00:33.300Z,1.17
2023-04-23T14:02:59.819Z,1.50
2023-04-23T14:05:26.389Z,1.00
2023-04-23T14:07:52.801Z,1.30
2023-04-23T14:10:19.357Z,1.07
2023-04-23T14:12:46.713Z,1.40
2023-04-23T14:15:13.495Z,1.17
2023-04-23T14:17:40.767Z,1.57
2023-04-23T14:20:07.820Z,1.47
2023-04-23T14:22:34.175Z,1.37
2023-04-23T14:25:09.655Z,1.40
2023-04-23T14:27:41.937Z,1.27
2023-04-23T14:30:16.303Z,1.30
2023-04-23T14:32:49.372Z,1.43
2023-04-23T14:35:16.892Z,1.53
2023-04-23T14:37:45.269Z,1.33
2023-04-23T14:40:15.761Z,1.63
2023-04-23T14:42:42.159Z,1.60
2023-04-23T14:45:09.035Z,1.37
2023-04-23T14:47:35.516Z,1.57
2023-04-23T14:50:01.883Z,1.60
2023-04-23T14:52:28.367Z,1.67
2023-04-23T14:54:55.960Z,1.70
2023-04-23T14:57:23.392Z,1.73
2023-04-23T14:59:49.812Z,1.80
2023-04-23T15:02:16.491Z,1.80
2023-04-23T15:04:43.102Z,1.97
2023-04-23T15:07:09.504Z,2.30
2023-04-23T15:09:35.952Z,1.90
2023-04-23T15:12:06.190Z,2.13
2023-04-23T15:14:36.575Z,1.83
2023-04-23T15:17:02.941Z,2.00
2023-04-23T15:19:31.321Z,2.20
2023-04-23T15:21:57.773Z,1.93
2023-04-23T15:24:24.202Z,2.33
2023-04-23T15:26:53.229Z,2.27
2023-04-23T15:29:20.037Z,2.10
2023-04-23T15:31:46.381Z,2.57
2023-04-23T15:34:13.700Z,2.20
2023-04-23T15:36:40.225Z,1.80
2023-04-23T15:39:07.493Z,2.77
2023-04-23T15:41:37.061Z,2.13
2023-04-23T15:44:05.339Z,2.27
2023-04-23T15:46:31.678Z,2.10
2023-04-23T15:48:58.029Z,1.80
2023-04-23T15:51:24.579Z,2.40
2023-04-23T15:53:51.469Z,1.90
2023-04-23T15:56:17.845Z,2.13
2023-04-23T15:58:44.271Z,2.20
2023-04-23T16:01:11.289Z,2.40
2023-04-23T16:03:37.950Z,2.20
2023-04-23T16:06:05.038Z,2.40
2023-04-23T16:08:32.097Z,2.23
2023-04-23T16:10:59.253Z,2.60
2023-04-23T16:13:27.469Z,2.90
2023-04-23T16:15:53.941Z,2.27
2023-04-23T16:18:20.621Z,2.47
2023-04-23T16:20:47.170Z,2.37
2023-04-23T16:23:14.305Z,2.50
2023-04-23T16:25:41.201Z,2.63
2023-04-23T16:28:07.742Z,2.60
2023-04-23T16:30:34.346Z,3.50
2023-04-23T16:33:00.744Z,2.87
2023-04-23T16:35:27.799Z,2.40
2023-04-23T16:37:54.158Z,2.87
2023-04-23T16:40:21.357Z,2.53
2023-04-23T16:42:48.870Z,2.70
2023-04-23T16:45:15.568Z,2.30
2023-04-23T16:47:43.546Z,2.30
2023-04-23T16:50:10.576Z,2.23
2023-04-23T16:52:37.078Z,2.70
2023-04-23T16:55:03.626Z,2.50
2023-04-23T16:57:30.347Z,2.60
2023-04-23T16:59:56.679Z,2.20
2023-04-23T17:02:23.081Z,2.43
2023-04-23T17:04:49.987Z,2.40
2023-04-23T17:07:17.016Z,3.23
2023-04-23T17:09:43.463Z,2.97
2023-04-23T17:12:09.894Z,2.70
2023-04-23T17:14:36.274Z,2.20
2023-04-23T17:17:02.643Z,2.20
2023-04-23T17:19:29.118Z,1.93
2023-04-23T17:21:55.485Z,1.77
2023-04-23T17:24:21.855Z,1.40
2023-04-23T17:26:49.176Z,1.20
2023-04-23T17:29:15.547Z,1.70
2023-04-23T17:31:41.878Z,1.47
2023-04-23T17:34:08.243Z,1.53
2023-04-23T17:36:34.628Z,1.67
2023-04-23T17:39:00.998Z,2.10
2023-04-23T17:41:27.486Z,1.87
2023-04-23T17:43:53.841Z,1.60
2023-04-23T17:46:20.528Z,1.97
2023-04-23T17:48:48.189Z,2.00
2023-04-23T17:51:14.626Z,1.63
2023-04-23T17:53:42.215Z,1.30
2023-04-23T17:56:08.554Z,1.80
2023-04-23T17:58:36.110Z,1.50
2023-04-23T18:01:04.624Z,1.80
2023-04-23T18:03:32.177Z,2.07
2023-04-23T18:05:58.828Z,1.67
2023-04-23T18:08:25.507Z,4.00
2023-04-23T18:10:52.081Z,4.40
2023-04-23T18:13:18.707Z,3.83
2023-04-23T18:15:49.671Z,1.90
2023-04-23T18:18:17.125Z,1.47
2023-04-23T18:20:44.199Z,2.10
2023-04-23T18:23:11.703Z,1.70
2023-04-23T18:25:38.566Z,1.43
2023-04-23T18:28:04.900Z,3.40
2023-04-23T18:30:31.611Z,2.87
2023-04-23T18:33:26.414Z,3.07
2023-04-23T18:35:56.247Z,2.20
2023-04-23T18:38:25.707Z,2.60
2023-04-23T18:40:52.297Z,3.30
2023-04-23T18:43:18.777Z,1.73
2023-04-23T18:45:45.101Z,1.40
2023-04-23T18:48:32.967Z,1.80
2023-04-23T18:51:05.828Z,1.40
2023-04-23T18:53:32.258Z,1.73
2023-04-23T18:55:58.812Z,1.90
2023-04-23T18:58:25.494Z,2.20
2023-04-23T19:00:51.840Z,1.93
2023-04-23T19:03:26.032Z,1.60
2023-04-23T19:05:53.769Z,1.70
2023-04-23T19:08:20.553Z,0.90
2023-04-23T19:10:46.934Z,1.30
2023-04-23T19:13:13.278Z,1.50
2023-04-23T19:15:39.881Z,1.83
2023-04-23T19:18:06.296Z,1.87
2023-04-23T19:20:32.757Z,1.90
2023-04-23T19:22:59.394Z,1.50
2023-04-23T19:25:25.945Z,1.20
2023-04-23T19:27:52.322Z,1.40
2023-04-23T19:30:18.729Z,1.40
2023-04-23T19:32:45.180Z,1.10
2023-04-23T19:35:11.700Z,1.20
2023-04-23T19:37:38.052Z,1.23
2023-04-23T19:40:04.975Z,1.40
2023-04-23T19:42:32.181Z,1.07
2023-04-23T19:44:58.704Z,1.10
2023-04-23T19:47:25.217Z,1.40
2023-04-23T19:49:51.553Z,1.40
2023-04-23T19:52:22.118Z,1.27
2023-04-23T19:54:49.731Z,1.30
2023-04-23T19:57:19.666Z,1.40
2023-04-23T19:59:46.185Z,1.30
2023-04-23T20:02:12.765Z,1.10
2023-04-23T20:04:39.443Z,0.80
2023-04-23T20:07:06.905Z,0.80
2023-04-23T20:09:34.204Z,1.03
2023-04-23T20:12:01.380Z,1.00
2023-04-23T20:14:28.980Z,0.90
2023-04-23T20:16:56.050Z,0.67
2023-04-23T20:19:25.527Z,1.00
2023-04-23T20:21:52.845Z,0.97
2023-04-23T20:24:21.213Z,0.90
2023-04-23T20:26:48.568Z,0.70
2023-04-23T20:29:15.061Z,0.80
2023-04-23T20:31:41.890Z,0.70
2023-04-23T20:34:10.907Z,0.80
2023-04-23T20:36:38.929Z,0.60
2023-04-23T20:39:05.308Z,0.70
2023-04-23T20:41:34.354Z,0.80
2023-04-23T20:44:02.034Z,0.90
2023-04-23T20:46:32.435Z,0.60
2023-04-23T20:49:00.769Z,0.67
2023-04-23T20:51:33.240Z,0.80
2023-04-23T20:53:59.904Z,0.80
2023-04-23T20:56:26.282Z,0.83
2023-04-23T20:58:52.819Z,0.63
2023-04-23T21:01:19.766Z,0.60
2023-04-23T21:03:46.302Z,0.80
2023-04-23T21:06:12.813Z,0.70
2023-04-23T21:08:41.231Z,0.67
2023-04-23T21:11:13.728Z,0.60
2023-04-23T21:13:40.868Z,0.70
2023-04-23T21:16:07.267Z,0.70
2023-04-23T21:18:33.897Z,0.80
2023-04-23T21:21:00.692Z,0.60
2023-04-23T21:23:27.034Z,0.80
2023-04-23T21:25:53.679Z,0.60
2023-04-23T21:28:20.242Z,0.80
2023-04-23T21:30:51.987Z,0.70
2023-04-23T21:33:20.169Z,0.70
2023-04-23T21:35:47.850Z,0.70
2023-04-23T21:38:14.312Z,0.60
2023-04-23T21:40:41.120Z,0.60
2023-04-23T21:43:07.653Z,0.60
2023-04-23T21:45:34.369Z,0.70
2023-04-23T21:48:01.066Z,0.70
2023-04-23T21:50:29.777Z,0.70
2023-04-23T21:52:58.395Z,0.67
2023-04-23T21:55:27.146Z,0.60
2023-04-23T21:57:56.409Z,0.77
2023-04-23T22:00:25.029Z,0.60
2023-04-23T22:02:55.097Z,0.90
2023-04-23T22:05:23.432Z,0.70
2023-04-23T22:07:54.300Z,0.90
2023-04-23T22:10:22.112Z,0.90
2023-04-23T22:12:49.569Z,0.70
2023-04-23T22:15:18.300Z,0.60
2023-04-23T22:17:48.285Z,0.70
2023-04-23T22:20:15.658Z,0.83
2023-04-23T22:22:42.479Z,0.80
2023-04-23T22:25:10.421Z,0.60
2023-04-23T22:27:38.431Z,0.70
2023-04-23T22:30:09.299Z,0.60
2023-04-23T22:32:36.889Z,0.60
2023-04-23T22:35:03.931Z,0.50
2023-04-23T22:37:31.698Z,0.80
2023-04-23T22:39:58.471Z,1.00
2023-04-23T22:42:24.905Z,0.60
2023-04-23T22:44:51.372Z,0.60
2023-04-23T22:47:17.851Z,0.63
2023-04-23T22:49:44.520Z,0.70
2023-04-23T22:52:17.192Z,0.67
2023-04-23T22:54:44.392Z,0.70
2023-04-23T22:57:11.665Z,0.60
2023-04-23T22:59:39.758Z,0.77
2023-04-23T23:02:07.181Z,0.80
2023-04-23T23:04:37.456Z,0.80
2023-04-23T23:07:05.588Z,0.70
2023-04-23T23:09:32.422Z,0.60
2023-04-23T23:12:01.098Z,1.13
2023-04-23T23:14:28.993Z,0.80
2023-04-23T23:16:58.909Z,0.93
2023-04-23T23:19:27.201Z,0.73
2023-04-23T23:21:53.889Z,0.80
2023-04-23T23:24:21.312Z,0.80
2023-04-23T23:26:47.670Z,0.70
2023-04-23T23:29:15.110Z,0.70
2023-04-23T23:31:41.549Z,0.80
2023-04-23T23:34:08.748Z,0.70
2023-04-23T23:36:35.280Z,0.70
2023-04-23T23:39:01.746Z,0.70
2023-04-23T23:41:28.190Z,0.80
2023-04-23T23:43:54.802Z,0.70
2023-04-23T23:46:21.357Z,1.40
2023-04-23T23:48:47.899Z,1.00
2023-04-23T23:51:14.469Z,0.80
2023-04-23T23:53:40.921Z,0.70
2023-04-23T23:56:07.441Z,0.70
2023-04-23T23:58:33.792Z,0.70
